sensor_id;sensor_type;location;lat;lon;timestamp;P1;durP1;ratioP1;P2;durP2;ratioP2
55467;SDS011;41332;42.702;23.200;2023-07-02T00:02:20;10.07;;;4.15;;
55467;SDS011;41332;42.702;23.200;2023-07-02T00:04:46;5.73;;;3.70;;
55467;SDS011;41332;42.702;23.200;2023-07-02T00:07:12;8.13;;;3.58;;
55467;SDS011;41332;42.702;23.200;2023-07-02T00:09:37;4.50;;;3.25;;
55467;SDS011;41332;42.702;23.200;2023-07-02T00:12:03;4.70;;;4.18;;
55467;SDS011;41332;42.702;23.200;2023-07-02T00:14:29;5.00;;;3.85;;
55467;SDS011;41332;42.702;23.200;2023-07-02T00:16:54;6.97;;;4.35;;
55467;SDS011;41332;42.702;23.200;2023-07-02T00:19:19;10.50;;;4.57;;
55467;SDS011;41332;42.702;23.200;2023-07-02T00:21:45;6.47;;;4.20;;
55467;SDS011;41332;42.702;23.200;2023-07-02T00:24:10;7.00;;;4.10;;
55467;SDS011;41332;42.702;23.200;2023-07-02T00:26:36;5.55;;;3.70;;
55467;SDS011;41332;42.702;23.200;2023-07-02T00:29:03;7.90;;;4.40;;
55467;SDS011;41332;42.702;23.200;2023-07-02T00:31:31;4.88;;;3.92;;
55467;SDS011;41332;42.702;23.200;2023-07-02T00:33:56;4.15;;;3.30;;
55467;SDS011;41332;42.702;23.200;2023-07-02T00:36:22;6.38;;;4.15;;
55467;SDS011;41332;42.702;23.200;2023-07-02T00:38:48;6.80;;;3.97;;
55467;SDS011;41332;42.702;23.200;2023-07-02T00:41:14;4.95;;;3.28;;
55467;SDS011;41332;42.702;23.200;2023-07-02T00:43:40;8.60;;;4.38;;
55467;SDS011;41332;42.702;23.200;2023-07-02T00:46:09;8.48;;;3.55;;
55467;SDS011;41332;42.702;23.200;2023-07-02T00:48:38;4.72;;;3.83;;
55467;SDS011;41332;42.702;23.200;2023-07-02T00:51:04;4.97;;;3.33;;
55467;SDS011;41332;42.702;23.200;2023-07-02T00:53:30;7.95;;;3.75;;
55467;SDS011;41332;42.702;23.200;2023-07-02T00:55:57;8.63;;;4.93;;
55467;SDS011;41332;42.702;23.200;2023-07-02T00:58:23;5.93;;;4.55;;
55467;SDS011;41332;42.702;23.200;2023-07-02T01:00:48;6.57;;;4.30;;
55467;SDS011;41332;42.702;23.200;2023-07-02T01:03:14;7.38;;;4.20;;
55467;SDS011;41332;42.702;23.200;2023-07-02T01:05:39;4.88;;;4.10;;
55467;SDS011;41332;42.702;23.200;2023-07-02T01:08:06;6.45;;;3.80;;
55467;SDS011;41332;42.702;23.200;2023-07-02T01:10:32;5.63;;;3.83;;
55467;SDS011;41332;42.702;23.200;2023-07-02T01:13:00;6.88;;;4.63;;
55467;SDS011;41332;42.702;23.200;2023-07-02T01:15:32;11.25;;;4.40;;
55467;SDS011;41332;42.702;23.200;2023-07-02T01:17:58;12.30;;;5.63;;
55467;SDS011;41332;42.702;23.200;2023-07-02T01:20:23;5.47;;;3.88;;
55467;SDS011;41332;42.702;23.200;2023-07-02T01:22:51;5.93;;;3.80;;
55467;SDS011;41332;42.702;23.200;2023-07-02T01:25:17;8.68;;;4.22;;
55467;SDS011;41332;42.702;23.200;2023-07-02T01:27:43;7.38;;;4.95;;
55467;SDS011;41332;42.702;23.200;2023-07-02T01:30:09;6.85;;;4.80;;
55467;SDS011;41332;42.702;23.200;2023-07-02T01:32:35;6.75;;;4.95;;
55467;SDS011;41332;42.702;23.200;2023-07-02T01:35:02;7.53;;;3.95;;
55467;SDS011;41332;42.702;23.200;2023-07-02T01:37:27;8.75;;;5.03;;
55467;SDS011;41332;42.702;23.200;2023-07-02T01:39:53;7.97;;;4.38;;
55467;SDS011;41332;42.702;23.200;2023-07-02T01:42:18;9.68;;;5.13;;
55467;SDS011;41332;42.702;23.200;2023-07-02T01:44:45;10.30;;;5.18;;
55467;SDS011;41332;42.702;23.200;2023-07-02T01:49:37;7.75;;;5.35;;
55467;SDS011;41332;42.702;23.200;2023-07-02T01:52:03;9.05;;;5.18;;
55467;SDS011;41332;42.702;23.200;2023-07-02T01:54:29;8.02;;;5.00;;
55467;SDS011;41332;42.702;23.200;2023-07-02T01:56:56;11.73;;;5.50;;
55467;SDS011;41332;42.702;23.200;2023-07-02T01:59:25;5.68;;;5.03;;
55467;SDS011;41332;42.702;23.200;2023-07-02T02:01:50;12.93;;;5.72;;
55467;SDS011;41332;42.702;23.200;2023-07-02T02:04:16;8.52;;;5.43;;
55467;SDS011;41332;42.702;23.200;2023-07-02T02:06:42;7.80;;;5.15;;
55467;SDS011;41332;42.702;23.200;2023-07-02T02:09:08;8.18;;;5.10;;
55467;SDS011;41332;42.702;23.200;2023-07-02T02:11:36;9.07;;;5.65;;
55467;SDS011;41332;42.702;23.200;2023-07-02T02:14:03;7.72;;;4.97;;
55467;SDS011;41332;42.702;23.200;2023-07-02T02:16:29;10.52;;;5.00;;
55467;SDS011;41332;42.702;23.200;2023-07-02T02:18:55;6.30;;;4.20;;
55467;SDS011;41332;42.702;23.200;2023-07-02T02:21:21;5.75;;;4.25;;
55467;SDS011;41332;42.702;23.200;2023-07-02T02:23:47;16.10;;;5.35;;
55467;SDS011;41332;42.702;23.200;2023-07-02T02:26:13;8.50;;;5.50;;
55467;SDS011;41332;42.702;23.200;2023-07-02T02:28:39;9.05;;;5.13;;
55467;SDS011;41332;42.702;23.200;2023-07-02T02:31:04;9.27;;;5.45;;
55467;SDS011;41332;42.702;23.200;2023-07-02T02:33:30;8.68;;;6.20;;
55467;SDS011;41332;42.702;23.200;2023-07-02T02:36:00;9.05;;;5.32;;
55467;SDS011;41332;42.702;23.200;2023-07-02T02:38:25;9.35;;;5.05;;
55467;SDS011;41332;42.702;23.200;2023-07-02T02:40:51;8.35;;;5.10;;
55467;SDS011;41332;42.702;23.200;2023-07-02T02:43:16;9.30;;;5.28;;
55467;SDS011;41332;42.702;23.200;2023-07-02T04:20:01;13.82;;;5.88;;
55467;SDS011;41332;42.702;23.200;2023-07-02T04:22:28;8.70;;;5.72;;
55467;SDS011;41332;42.702;23.200;2023-07-02T04:24:54;8.77;;;6.32;;
55467;SDS011;41332;42.702;23.200;2023-07-02T04:27:20;10.10;;;6.25;;
55467;SDS011;41332;42.702;23.200;2023-07-02T04:29:46;11.23;;;6.43;;
55467;SDS011;41332;42.702;23.200;2023-07-02T04:32:11;8.82;;;5.60;;
55467;SDS011;41332;42.702;23.200;2023-07-02T04:34:37;9.93;;;5.88;;
55467;SDS011;41332;42.702;23.200;2023-07-02T04:37:03;11.05;;;6.22;;
55467;SDS011;41332;42.702;23.200;2023-07-02T04:39:29;11.70;;;5.53;;
55467;SDS011;41332;42.702;23.200;2023-07-02T04:41:54;8.80;;;5.68;;
55467;SDS011;41332;42.702;23.200;2023-07-02T04:44:20;14.82;;;5.20;;
55467;SDS011;41332;42.702;23.200;2023-07-02T04:46:55;12.75;;;6.30;;
55467;SDS011;41332;42.702;23.200;2023-07-02T04:49:24;13.02;;;6.75;;
55467;SDS011;41332;42.702;23.200;2023-07-02T04:51:50;10.27;;;4.95;;
55467;SDS011;41332;42.702;23.200;2023-07-02T04:54:15;7.05;;;5.10;;
55467;SDS011;41332;42.702;23.200;2023-07-02T04:56:41;7.57;;;5.18;;
55467;SDS011;41332;42.702;23.200;2023-07-02T04:59:06;10.30;;;5.20;;
55467;SDS011;41332;42.702;23.200;2023-07-02T05:01:32;10.70;;;6.75;;
55467;SDS011;41332;42.702;23.200;2023-07-02T05:04:00;11.13;;;6.18;;
55467;SDS011;41332;42.702;23.200;2023-07-02T05:06:25;6.72;;;5.53;;
55467;SDS011;41332;42.702;23.200;2023-07-02T05:08:50;9.07;;;5.95;;
55467;SDS011;41332;42.702;23.200;2023-07-02T05:11:17;12.98;;;6.88;;
55467;SDS011;41332;42.702;23.200;2023-07-02T05:13:43;10.38;;;6.10;;
55467;SDS011;41332;42.702;23.200;2023-07-02T05:16:08;10.35;;;5.60;;
55467;SDS011;41332;42.702;23.200;2023-07-02T05:18:35;7.03;;;5.47;;
55467;SDS011;41332;42.702;23.200;2023-07-02T05:21:01;11.63;;;5.53;;
55467;SDS011;41332;42.702;23.200;2023-07-02T05:23:26;11.57;;;5.80;;
55467;SDS011;41332;42.702;23.200;2023-07-02T05:25:51;9.73;;;5.57;;
55467;SDS011;41332;42.702;23.200;2023-07-02T05:28:17;10.93;;;5.40;;
55467;SDS011;41332;42.702;23.200;2023-07-02T05:30:42;9.65;;;5.93;;
55467;SDS011;41332;42.702;23.200;2023-07-02T05:33:08;10.82;;;6.47;;
55467;SDS011;41332;42.702;23.200;2023-07-02T05:35:33;10.52;;;5.38;;
55467;SDS011;41332;42.702;23.200;2023-07-02T05:37:59;8.15;;;5.57;;
55467;SDS011;41332;42.702;23.200;2023-07-02T05:40:24;11.93;;;6.65;;
55467;SDS011;41332;42.702;23.200;2023-07-02T05:42:49;8.48;;;5.43;;
55467;SDS011;41332;42.702;23.200;2023-07-02T05:45:15;12.55;;;5.93;;
55467;SDS011;41332;42.702;23.200;2023-07-02T05:47:40;8.70;;;5.47;;
55467;SDS011;41332;42.702;23.200;2023-07-02T05:50:07;12.93;;;7.00;;
55467;SDS011;41332;42.702;23.200;2023-07-02T05:52:33;11.27;;;6.45;;
55467;SDS011;41332;42.702;23.200;2023-07-02T05:54:58;10.20;;;6.38;;
55467;SDS011;41332;42.702;23.200;2023-07-02T05:57:23;8.00;;;5.20;;
55467;SDS011;41332;42.702;23.200;2023-07-02T05:59:49;12.00;;;5.85;;
55467;SDS011;41332;42.702;23.200;2023-07-02T06:02:14;7.97;;;5.68;;
55467;SDS011;41332;42.702;23.200;2023-07-02T06:04:39;12.70;;;6.78;;
55467;SDS011;41332;42.702;23.200;2023-07-02T06:07:05;11.35;;;5.75;;
55467;SDS011;41332;42.702;23.200;2023-07-02T06:09:30;9.85;;;5.45;;
55467;SDS011;41332;42.702;23.200;2023-07-02T06:11:57;24.65;;;6.72;;
55467;SDS011;41332;42.702;23.200;2023-07-02T06:14:25;13.55;;;4.97;;
55467;SDS011;41332;42.702;23.200;2023-07-02T06:16:51;7.53;;;6.25;;
55467;SDS011;41332;42.702;23.200;2023-07-02T06:19:17;7.30;;;6.10;;
55467;SDS011;41332;42.702;23.200;2023-07-02T06:21:43;8.43;;;5.22;;
55467;SDS011;41332;42.702;23.200;2023-07-02T06:24:08;7.60;;;5.90;;
55467;SDS011;41332;42.702;23.200;2023-07-02T06:26:34;7.15;;;5.18;;
55467;SDS011;41332;42.702;23.200;2023-07-02T06:28:59;15.30;;;5.18;;
55467;SDS011;41332;42.702;23.200;2023-07-02T06:31:24;7.65;;;4.47;;
55467;SDS011;41332;42.702;23.200;2023-07-02T06:33:50;7.70;;;4.13;;
55467;SDS011;41332;42.702;23.200;2023-07-02T06:36:15;6.70;;;3.38;;
55467;SDS011;41332;42.702;23.200;2023-07-02T06:38:42;6.97;;;3.35;;
55467;SDS011;41332;42.702;23.200;2023-07-02T06:41:08;8.20;;;3.55;;
55467;SDS011;41332;42.702;23.200;2023-07-02T06:43:33;4.22;;;3.22;;
55467;SDS011;41332;42.702;23.200;2023-07-02T06:45:58;8.60;;;5.28;;
55467;SDS011;41332;42.702;23.200;2023-07-02T06:48:24;4.05;;;2.83;;
55467;SDS011;41332;42.702;23.200;2023-07-02T06:50:49;5.20;;;2.33;;
55467;SDS011;41332;42.702;23.200;2023-07-02T06:53:15;5.43;;;3.97;;
55467;SDS011;41332;42.702;23.200;2023-07-02T06:55:40;3.60;;;2.67;;
55467;SDS011;41332;42.702;23.200;2023-07-02T06:58:06;3.88;;;2.65;;
55467;SDS011;41332;42.702;23.200;2023-07-02T07:00:32;9.00;;;3.92;;
55467;SDS011;41332;42.702;23.200;2023-07-02T07:03:00;4.05;;;2.88;;
55467;SDS011;41332;42.702;23.200;2023-07-02T07:05:27;5.65;;;2.40;;
55467;SDS011;41332;42.702;23.200;2023-07-02T07:07:54;6.90;;;3.78;;
55467;SDS011;41332;42.702;23.200;2023-07-02T07:10:19;4.22;;;2.72;;
55467;SDS011;41332;42.702;23.200;2023-07-02T07:12:45;6.68;;;2.50;;
55467;SDS011;41332;42.702;23.200;2023-07-02T07:15:10;4.25;;;2.63;;
55467;SDS011;41332;42.702;23.200;2023-07-02T07:17:36;3.35;;;2.67;;
55467;SDS011;41332;42.702;23.200;2023-07-02T07:20:01;4.57;;;2.67;;
55467;SDS011;41332;42.702;23.200;2023-07-02T07:22:29;4.88;;;2.97;;
55467;SDS011;41332;42.702;23.200;2023-07-02T07:24:55;4.80;;;2.92;;
55467;SDS011;41332;42.702;23.200;2023-07-02T07:27:20;4.70;;;2.67;;
55467;SDS011;41332;42.702;23.200;2023-07-02T07:29:46;3.33;;;2.72;;
55467;SDS011;41332;42.702;23.200;2023-07-02T07:32:11;4.05;;;2.97;;
55467;SDS011;41332;42.702;23.200;2023-07-02T07:34:37;2.35;;;2.10;;
55467;SDS011;41332;42.702;23.200;2023-07-02T07:37:02;4.88;;;2.80;;
55467;SDS011;41332;42.702;23.200;2023-07-02T07:39:28;8.60;;;6.45;;
55467;SDS011;41332;42.702;23.200;2023-07-02T07:41:53;13.85;;;5.32;;
55467;SDS011;41332;42.702;23.200;2023-07-02T07:44:18;6.88;;;4.63;;
55467;SDS011;41332;42.702;23.200;2023-07-02T07:46:44;8.48;;;5.88;;
55467;SDS011;41332;42.702;23.200;2023-07-02T07:49:09;6.68;;;4.78;;
55467;SDS011;41332;42.702;23.200;2023-07-02T07:51:35;7.80;;;4.78;;
55467;SDS011;41332;42.702;23.200;2023-07-02T07:54:03;7.82;;;4.93;;
55467;SDS011;41332;42.702;23.200;2023-07-02T07:56:28;9.38;;;4.85;;
55467;SDS011;41332;42.702;23.200;2023-07-02T07:58:53;10.05;;;6.03;;
55467;SDS011;41332;42.702;23.200;2023-07-02T08:01:19;7.65;;;5.45;;
55467;SDS011;41332;42.702;23.200;2023-07-02T08:03:45;6.15;;;3.78;;
55467;SDS011;41332;42.702;23.200;2023-07-02T08:06:11;9.93;;;6.13;;
55467;SDS011;41332;42.702;23.200;2023-07-02T08:08:36;4.72;;;4.07;;
55467;SDS011;41332;42.702;23.200;2023-07-02T08:11:01;8.93;;;4.45;;
55467;SDS011;41332;42.702;23.200;2023-07-02T08:13:29;6.03;;;4.50;;
55467;SDS011;41332;42.702;23.200;2023-07-02T08:15:55;5.38;;;3.97;;
55467;SDS011;41332;42.702;23.200;2023-07-02T08:18:20;5.77;;;3.90;;
55467;SDS011;41332;42.702;23.200;2023-07-02T08:20:45;8.70;;;4.22;;
55467;SDS011;41332;42.702;23.200;2023-07-02T08:23:11;5.07;;;3.90;;
55467;SDS011;41332;42.702;23.200;2023-07-02T08:25:36;5.77;;;3.43;;
55467;SDS011;41332;42.702;23.200;2023-07-02T08:28:02;10.67;;;3.93;;
55467;SDS011;41332;42.702;23.200;2023-07-02T08:30:27;4.13;;;3.20;;
55467;SDS011;41332;42.702;23.200;2023-07-02T08:32:53;3.77;;;2.80;;
55467;SDS011;41332;42.702;23.200;2023-07-02T08:35:20;5.45;;;2.80;;
55467;SDS011;41332;42.702;23.200;2023-07-02T08:37:45;6.17;;;2.70;;
55467;SDS011;41332;42.702;23.200;2023-07-02T08:40:19;4.83;;;2.33;;
55467;SDS011;41332;42.702;23.200;2023-07-02T08:42:45;15.48;;;2.78;;
55467;SDS011;41332;42.702;23.200;2023-07-02T08:45:15;3.28;;;2.95;;
55467;SDS011;41332;42.702;23.200;2023-07-02T08:47:41;20.48;;;4.55;;
55467;SDS011;41332;42.702;23.200;2023-07-02T08:50:08;2.17;;;2.08;;
55467;SDS011;41332;42.702;23.200;2023-07-02T08:52:33;8.30;;;1.87;;
55467;SDS011;41332;42.702;23.200;2023-07-02T08:54:59;2.67;;;1.67;;
55467;SDS011;41332;42.702;23.200;2023-07-02T08:57:24;2.63;;;2.40;;
55467;SDS011;41332;42.702;23.200;2023-07-02T08:59:49;3.97;;;2.50;;
55467;SDS011;41332;42.702;23.200;2023-07-02T09:02:16;7.40;;;2.17;;
55467;SDS011;41332;42.702;23.200;2023-07-02T09:04:42;3.03;;;1.90;;
55467;SDS011;41332;42.702;23.200;2023-07-02T09:07:08;3.43;;;2.57;;
55467;SDS011;41332;42.702;23.200;2023-07-02T09:09:46;5.80;;;2.47;;
55467;SDS011;41332;42.702;23.200;2023-07-02T09:12:25;4.43;;;1.83;;
55467;SDS011;41332;42.702;23.200;2023-07-02T09:15:01;4.40;;;2.40;;
55467;SDS011;41332;42.702;23.200;2023-07-02T09:17:34;3.42;;;2.78;;
55467;SDS011;41332;42.702;23.200;2023-07-02T09:20:02;3.00;;;2.03;;
55467;SDS011;41332;42.702;23.200;2023-07-02T09:22:33;2.83;;;2.40;;
55467;SDS011;41332;42.702;23.200;2023-07-02T09:25:00;7.75;;;2.80;;
55467;SDS011;41332;42.702;23.200;2023-07-02T09:27:38;6.35;;;3.20;;
55467;SDS011;41332;42.702;23.200;2023-07-02T09:30:09;3.53;;;2.10;;
55467;SDS011;41332;42.702;23.200;2023-07-02T09:32:38;2.50;;;2.13;;
55467;SDS011;41332;42.702;23.200;2023-07-02T09:35:04;8.80;;;2.40;;
55467;SDS011;41332;42.702;23.200;2023-07-02T09:37:30;5.25;;;2.67;;
55467;SDS011;41332;42.702;23.200;2023-07-02T09:39:55;4.13;;;2.30;;
55467;SDS011;41332;42.702;23.200;2023-07-02T09:42:21;3.55;;;2.70;;
55467;SDS011;41332;42.702;23.200;2023-07-02T09:44:47;4.27;;;2.60;;
55467;SDS011;41332;42.702;23.200;2023-07-02T09:47:17;3.72;;;2.15;;
55467;SDS011;41332;42.702;23.200;2023-07-02T09:49:53;2.20;;;1.88;;
55467;SDS011;41332;42.702;23.200;2023-07-02T09:52:24;2.45;;;2.15;;
55467;SDS011;41332;42.702;23.200;2023-07-02T09:54:51;7.45;;;2.22;;
55467;SDS011;41332;42.702;23.200;2023-07-02T09:57:16;2.77;;;2.13;;
55467;SDS011;41332;42.702;23.200;2023-07-02T09:59:42;3.87;;;2.00;;
55467;SDS011;41332;42.702;23.200;2023-07-02T10:02:11;3.47;;;2.20;;
55467;SDS011;41332;42.702;23.200;2023-07-02T10:04:45;2.25;;;2.05;;
55467;SDS011;41332;42.702;23.200;2023-07-02T10:07:12;2.83;;;2.35;;
55467;SDS011;41332;42.702;23.200;2023-07-02T10:09:39;3.20;;;2.50;;
55467;SDS011;41332;42.702;23.200;2023-07-02T10:12:17;3.05;;;2.10;;
55467;SDS011;41332;42.702;23.200;2023-07-02T10:14:48;4.85;;;3.05;;
55467;SDS011;41332;42.702;23.200;2023-07-02T10:19:50;3.50;;;2.65;;
55467;SDS011;41332;42.702;23.200;2023-07-02T10:22:16;3.15;;;2.53;;
55467;SDS011;41332;42.702;23.200;2023-07-02T10:24:50;3.90;;;2.97;;
55467;SDS011;41332;42.702;23.200;2023-07-02T10:27:39;3.05;;;2.67;;
55467;SDS011;41332;42.702;23.200;2023-07-02T10:30:06;2.78;;;1.73;;
55467;SDS011;41332;42.702;23.200;2023-07-02T10:32:34;3.03;;;2.60;;
55467;SDS011;41332;42.702;23.200;2023-07-02T10:35:00;3.70;;;1.85;;
55467;SDS011;41332;42.702;23.200;2023-07-02T10:37:46;3.22;;;2.80;;
55467;SDS011;41332;42.702;23.200;2023-07-02T10:40:12;4.27;;;2.80;;
55467;SDS011;41332;42.702;23.200;2023-07-02T10:42:48;5.03;;;3.88;;
55467;SDS011;41332;42.702;23.200;2023-07-02T10:45:14;4.25;;;3.80;;
55467;SDS011;41332;42.702;23.200;2023-07-02T10:47:40;4.03;;;3.40;;
55467;SDS011;41332;42.702;23.200;2023-07-02T10:50:20;3.08;;;2.38;;
55467;SDS011;41332;42.702;23.200;2023-07-02T10:52:47;3.55;;;3.10;;
55467;SDS011;41332;42.702;23.200;2023-07-02T10:55:21;3.45;;;3.13;;
55467;SDS011;41332;42.702;23.200;2023-07-02T10:57:49;4.50;;;2.97;;
55467;SDS011;41332;42.702;23.200;2023-07-02T11:00:16;3.50;;;3.20;;
55467;SDS011;41332;42.702;23.200;2023-07-02T11:02:42;5.53;;;3.15;;
55467;SDS011;41332;42.702;23.200;2023-07-02T11:05:08;4.25;;;2.55;;
55467;SDS011;41332;42.702;23.200;2023-07-02T11:07:46;3.50;;;3.20;;
55467;SDS011;41332;42.702;23.200;2023-07-02T11:10:16;4.95;;;3.42;;
55467;SDS011;41332;42.702;23.200;2023-07-02T11:12:43;7.45;;;2.75;;
55467;SDS011;41332;42.702;23.200;2023-07-02T11:15:09;4.27;;;3.60;;
55467;SDS011;41332;42.702;23.200;2023-07-02T11:17:35;3.45;;;3.08;;
55467;SDS011;41332;42.702;23.200;2023-07-02T11:20:01;9.90;;;3.27;;
55467;SDS011;41332;42.702;23.200;2023-07-02T11:22:32;3.70;;;2.55;;
55467;SDS011;41332;42.702;23.200;2023-07-02T11:25:08;3.15;;;2.65;;
55467;SDS011;41332;42.702;23.200;2023-07-02T11:27:40;2.95;;;2.63;;
55467;SDS011;41332;42.702;23.200;2023-07-02T11:30:06;2.75;;;2.55;;
55467;SDS011;41332;42.702;23.200;2023-07-02T11:32:51;8.23;;;2.25;;
55467;SDS011;41332;42.702;23.200;2023-07-02T11:35:18;1.73;;;1.60;;
55467;SDS011;41332;42.702;23.200;2023-07-02T11:37:44;2.15;;;1.63;;
55467;SDS011;41332;42.702;23.200;2023-07-02T11:40:11;3.85;;;1.75;;
55467;SDS011;41332;42.702;23.200;2023-07-02T11:42:37;2.78;;;2.03;;
55467;SDS011;41332;42.702;23.200;2023-07-02T11:45:03;16.53;;;2.17;;
55467;SDS011;41332;42.702;23.200;2023-07-02T11:47:28;2.33;;;2.03;;
55467;SDS011;41332;42.702;23.200;2023-07-02T11:49:54;3.93;;;2.00;;
55467;SDS011;41332;42.702;23.200;2023-07-02T11:52:24;3.45;;;2.17;;
55467;SDS011;41332;42.702;23.200;2023-07-02T11:54:49;3.43;;;2.00;;
55467;SDS011;41332;42.702;23.200;2023-07-02T11:57:15;2.07;;;1.97;;
55467;SDS011;41332;42.702;23.200;2023-07-02T11:59:41;2.60;;;2.40;;
55467;SDS011;41332;42.702;23.200;2023-07-02T12:02:07;3.58;;;1.85;;
55467;SDS011;41332;42.702;23.200;2023-07-02T12:04:32;2.80;;;2.60;;
55467;SDS011;41332;42.702;23.200;2023-07-02T12:06:58;2.97;;;2.53;;
55467;SDS011;41332;42.702;23.200;2023-07-02T12:09:26;3.08;;;2.78;;
55467;SDS011;41332;42.702;23.200;2023-07-02T12:11:52;3.58;;;2.75;;
55467;SDS011;41332;42.702;23.200;2023-07-02T12:14:17;4.03;;;3.43;;
55467;SDS011;41332;42.702;23.200;2023-07-02T12:16:43;4.00;;;3.43;;
55467;SDS011;41332;42.702;23.200;2023-07-02T12:19:08;3.67;;;3.03;;
55467;SDS011;41332;42.702;23.200;2023-07-02T12:21:33;5.03;;;3.27;;
55467;SDS011;41332;42.702;23.200;2023-07-02T12:23:59;3.97;;;3.33;;
55467;SDS011;41332;42.702;23.200;2023-07-02T12:26:25;3.00;;;2.60;;
55467;SDS011;41332;42.702;23.200;2023-07-02T12:28:50;6.47;;;3.63;;
55467;SDS011;41332;42.702;23.200;2023-07-02T12:31:15;4.67;;;3.53;;
55467;SDS011;41332;42.702;23.200;2023-07-02T12:33:41;4.30;;;3.50;;
55467;SDS011;41332;42.702;23.200;2023-07-02T12:36:06;3.77;;;3.40;;
55467;SDS011;41332;42.702;23.200;2023-07-02T12:38:32;5.63;;;3.23;;
55467;SDS011;41332;42.702;23.200;2023-07-02T12:40:57;4.43;;;3.77;;
55467;SDS011;41332;42.702;23.200;2023-07-02T12:43:22;3.80;;;3.30;;
55467;SDS011;41332;42.702;23.200;2023-07-02T12:45:48;6.23;;;3.53;;
55467;SDS011;41332;42.702;23.200;2023-07-02T12:48:13;4.73;;;3.43;;
55467;SDS011;41332;42.702;23.200;2023-07-02T12:50:38;5.33;;;3.77;;
55467;SDS011;41332;42.702;23.200;2023-07-02T12:53:04;5.87;;;3.97;;
55467;SDS011;41332;42.702;23.200;2023-07-02T12:55:30;5.47;;;3.50;;
55467;SDS011;41332;42.702;23.200;2023-07-02T12:57:56;4.60;;;3.97;;
55467;SDS011;41332;42.702;23.200;2023-07-02T13:00:21;3.07;;;2.83;;
55467;SDS011;41332;42.702;23.200;2023-07-02T13:02:47;4.13;;;3.70;;
55467;SDS011;41332;42.702;23.200;2023-07-02T13:05:12;4.60;;;3.60;;
55467;SDS011;41332;42.702;23.200;2023-07-02T13:07:38;4.35;;;3.30;;
55467;SDS011;41332;42.702;23.200;2023-07-02T13:10:04;4.07;;;3.77;;
55467;SDS011;41332;42.702;23.200;2023-07-02T13:12:30;4.75;;;3.97;;
55467;SDS011;41332;42.702;23.200;2023-07-02T13:14:55;3.60;;;3.30;;
55467;SDS011;41332;42.702;23.200;2023-07-02T13:17:21;4.13;;;3.73;;
55467;SDS011;41332;42.702;23.200;2023-07-02T13:19:46;11.67;;;3.67;;
55467;SDS011;41332;42.702;23.200;2023-07-02T13:22:12;5.27;;;3.97;;
55467;SDS011;41332;42.702;23.200;2023-07-02T13:24:37;4.90;;;4.40;;
55467;SDS011;41332;42.702;23.200;2023-07-02T13:27:03;6.30;;;3.50;;
55467;SDS011;41332;42.702;23.200;2023-07-02T13:29:35;4.32;;;3.92;;
55467;SDS011;41332;42.702;23.200;2023-07-02T13:32:00;5.72;;;4.38;;
55467;SDS011;41332;42.702;23.200;2023-07-02T13:34:26;4.00;;;3.53;;
55467;SDS011;41332;42.702;23.200;2023-07-02T13:36:51;6.57;;;4.50;;
55467;SDS011;41332;42.702;23.200;2023-07-02T13:39:17;25.87;;;5.43;;
55467;SDS011;41332;42.702;23.200;2023-07-02T13:41:42;9.57;;;4.33;;
55467;SDS011;41332;42.702;23.200;2023-07-02T13:44:07;7.37;;;4.13;;
55467;SDS011;41332;42.702;23.200;2023-07-02T13:46:33;8.20;;;4.83;;
55467;SDS011;41332;42.702;23.200;2023-07-02T13:48:58;7.47;;;4.87;;
55467;SDS011;41332;42.702;23.200;2023-07-02T13:51:23;8.63;;;4.63;;
55467;SDS011;41332;42.702;23.200;2023-07-02T13:53:49;8.70;;;4.73;;
55467;SDS011;41332;42.702;23.200;2023-07-02T13:56:14;7.73;;;4.43;;
55467;SDS011;41332;42.702;23.200;2023-07-02T14:01:20;5.50;;;4.60;;
55467;SDS011;41332;42.702;23.200;2023-07-02T14:03:46;5.87;;;5.03;;
55467;SDS011;41332;42.702;23.200;2023-07-02T14:06:11;8.32;;;4.65;;
55467;SDS011;41332;42.702;23.200;2023-07-02T14:08:36;5.47;;;4.77;;
55467;SDS011;41332;42.702;23.200;2023-07-02T14:11:02;7.65;;;5.40;;
55467;SDS011;41332;42.702;23.200;2023-07-02T14:13:30;6.03;;;4.20;;
55467;SDS011;41332;42.702;23.200;2023-07-02T14:15:55;8.67;;;5.30;;
55467;SDS011;41332;42.702;23.200;2023-07-02T14:18:21;6.72;;;4.78;;
55467;SDS011;41332;42.702;23.200;2023-07-02T14:20:46;8.40;;;5.10;;
55467;SDS011;41332;42.702;23.200;2023-07-02T14:23:12;4.90;;;4.40;;
55467;SDS011;41332;42.702;23.200;2023-07-02T14:25:37;4.43;;;4.03;;
55467;SDS011;41332;42.702;23.200;2023-07-02T14:28:02;8.70;;;4.97;;
55467;SDS011;41332;42.702;23.200;2023-07-02T14:30:29;9.93;;;5.63;;
55467;SDS011;41332;42.702;23.200;2023-07-02T14:32:54;7.65;;;5.47;;
55467;SDS011;41332;42.702;23.200;2023-07-02T14:35:20;6.43;;;4.53;;
55467;SDS011;41332;42.702;23.200;2023-07-02T14:37:50;25.48;;;11.95;;
55467;SDS011;41332;42.702;23.200;2023-07-02T14:40:15;8.68;;;6.65;;
55467;SDS011;41332;42.702;23.200;2023-07-02T14:42:41;7.82;;;5.65;;
55467;SDS011;41332;42.702;23.200;2023-07-02T14:45:07;8.20;;;4.63;;
55467;SDS011;41332;42.702;23.200;2023-07-02T14:47:34;12.13;;;5.78;;
55467;SDS011;41332;42.702;23.200;2023-07-02T14:50:00;8.15;;;5.50;;
55467;SDS011;41332;42.702;23.200;2023-07-02T14:52:25;7.55;;;5.38;;
55467;SDS011;41332;42.702;23.200;2023-07-02T14:54:51;8.43;;;5.28;;
55467;SDS011;41332;42.702;23.200;2023-07-02T14:57:16;6.60;;;5.22;;
55467;SDS011;41332;42.702;23.200;2023-07-02T14:59:44;9.02;;;5.53;;
55467;SDS011;41332;42.702;23.200;2023-07-02T15:02:10;9.65;;;5.80;;
55467;SDS011;41332;42.702;23.200;2023-07-02T15:04:37;7.72;;;4.65;;
55467;SDS011;41332;42.702;23.200;2023-07-02T15:07:03;11.35;;;5.28;;
55467;SDS011;41332;42.702;23.200;2023-07-02T15:09:29;7.65;;;4.93;;
55467;SDS011;41332;42.702;23.200;2023-07-02T15:11:54;8.68;;;5.63;;
55467;SDS011;41332;42.702;23.200;2023-07-02T15:14:20;6.80;;;5.72;;
55467;SDS011;41332;42.702;23.200;2023-07-02T15:16:45;7.80;;;4.85;;
55467;SDS011;41332;42.702;23.200;2023-07-02T15:19:10;14.50;;;8.73;;
55467;SDS011;41332;42.702;23.200;2023-07-02T15:21:37;16.92;;;11.18;;
55467;SDS011;41332;42.702;23.200;2023-07-02T15:24:03;13.40;;;9.30;;
55467;SDS011;41332;42.702;23.200;2023-07-02T15:26:29;13.67;;;8.47;;
55467;SDS011;41332;42.702;23.200;2023-07-02T15:28:54;9.52;;;8.27;;
55467;SDS011;41332;42.702;23.200;2023-07-02T15:31:20;8.40;;;5.73;;
55467;SDS011;41332;42.702;23.200;2023-07-02T15:33:45;17.30;;;6.95;;
55467;SDS011;41332;42.702;23.200;2023-07-02T15:36:13;19.25;;;7.93;;
55467;SDS011;41332;42.702;23.200;2023-07-02T15:38:39;14.47;;;7.30;;
55467;SDS011;41332;42.702;23.200;2023-07-02T15:41:05;11.30;;;5.80;;
55467;SDS011;41332;42.702;23.200;2023-07-02T15:45:56;7.65;;;5.45;;
55467;SDS011;41332;42.702;23.200;2023-07-02T15:48:22;10.88;;;6.32;;
55467;SDS011;41332;42.702;23.200;2023-07-02T15:50:47;9.88;;;4.63;;
55467;SDS011;41332;42.702;23.200;2023-07-02T15:53:13;12.63;;;6.50;;
55467;SDS011;41332;42.702;23.200;2023-07-02T15:55:38;9.38;;;5.68;;
55467;SDS011;41332;42.702;23.200;2023-07-02T15:58:03;6.25;;;4.82;;
55467;SDS011;41332;42.702;23.200;2023-07-02T16:00:29;6.82;;;5.38;;
55467;SDS011;41332;42.702;23.200;2023-07-02T16:02:55;7.53;;;5.50;;
55467;SDS011;41332;42.702;23.200;2023-07-02T16:05:21;6.97;;;5.07;;
55467;SDS011;41332;42.702;23.200;2023-07-02T16:07:46;6.27;;;5.20;;
55467;SDS011;41332;42.702;23.200;2023-07-02T16:10:12;7.60;;;5.70;;
55467;SDS011;41332;42.702;23.200;2023-07-02T16:12:37;9.25;;;5.28;;
55467;SDS011;41332;42.702;23.200;2023-07-02T16:15:02;6.78;;;5.95;;